sensor_id;sensor_type;location;lat;lon;timestamp;pressure;altitude;pressure_sealevel;temperature;humidity
31337;BME280;22846;42.654;23.314;2023-05-07T00:01:46;94740.22;;;23.31;50.59
31337;BME280;22846;42.654;23.314;2023-05-07T00:04:12;94741.41;;;23.30;50.73
31337;BME280;22846;42.654;23.314;2023-05-07T00:06:38;94741.41;;;23.30;50.52
31337;BME280;22846;42.654;23.314;2023-05-07T00:09:05;94744.91;;;23.30;50.76
31337;BME280;22846;42.654;23.314;2023-05-07T00:11:30;94746.84;;;23.30;50.84
31337;BME280;22846;42.654;23.314;2023-05-07T00:13:56;94741.41;;;23.30;50.55
31337;BME280;22846;42.654;23.314;2023-05-07T00:16:21;94742.19;;;23.30;50.23
31337;BME280;22846;42.654;23.314;2023-05-07T00:18:47;94739.47;;;23.30;50.81
31337;BME280;22846;42.654;23.314;2023-05-07T00:21:12;94733.22;;;23.30;50.20
31337;BME280;22846;42.654;23.314;2023-05-07T00:23:37;94727.78;;;23.30;50.35
31337;BME280;22846;42.654;23.314;2023-05-07T00:26:03;94725.47;;;23.28;50.78
31337;BME280;22846;42.654;23.314;2023-05-07T00:28:29;94710.94;;;23.19;50.24
31337;BME280;22846;42.654;23.314;2023-05-07T00:30:54;94731.72;;;23.29;50.58
31337;BME280;22846;42.654;23.314;2023-05-07T00:33:20;94718.59;;;23.24;50.49
31337;BME280;22846;42.654;23.314;2023-05-07T00:35:46;94723.94;;;23.27;50.64
31337;BME280;22846;42.654;23.314;2023-05-07T00:38:11;94722.00;;;23.28;50.31
31337;BME280;22846;42.654;23.314;2023-05-07T00:40:37;94727.53;;;23.24;50.45
31337;BME280;22846;42.654;23.314;2023-05-07T00:43:02;94730.19;;;23.28;50.38
31337;BME280;22846;42.654;23.314;2023-05-07T00:45:29;94723.59;;;23.25;50.39
31337;BME280;22846;42.654;23.314;2023-05-07T00:47:59;94734.09;;;23.27;49.79
31337;BME280;22846;42.654;23.314;2023-05-07T00:50:26;94726.50;;;23.18;50.20
31337;BME280;22846;42.654;23.314;2023-05-07T00:52:52;94740.31;;;23.27;50.09
31337;BME280;22846;42.654;23.314;2023-05-07T00:55:18;94741.09;;;23.28;50.38
31337;BME280;22846;42.654;23.314;2023-05-07T00:57:43;94737.56;;;23.27;50.66
31337;BME280;22846;42.654;23.314;2023-05-07T01:00:10;94741.09;;;23.28;50.63
31337;BME280;22846;42.654;23.314;2023-05-07T01:02:38;94732.22;;;23.24;50.72
31337;BME280;22846;42.654;23.314;2023-05-07T01:05:05;94748.91;;;23.26;50.56
31337;BME280;22846;42.654;23.314;2023-05-07T01:07:33;94733.31;;;23.26;50.52
31337;BME280;22846;42.654;23.314;2023-05-07T01:09:59;94732.56;;;23.26;50.20
31337;BME280;22846;42.654;23.314;2023-05-07T01:12:26;94745.84;;;23.24;50.32
31337;BME280;22846;42.654;23.314;2023-05-07T01:14:53;94738.78;;;23.26;50.01
31337;BME280;22846;42.654;23.314;2023-05-07T01:17:18;94737.22;;;23.25;49.81
31337;BME280;22846;42.654;23.314;2023-05-07T01:19:44;94738.00;;;23.26;50.06
31337;BME280;22846;42.654;23.314;2023-05-07T01:22:10;94735.28;;;23.26;50.41
31337;BME280;22846;42.654;23.314;2023-05-07T01:24:40;94729.75;;;23.13;50.12
31337;BME280;22846;42.654;23.314;2023-05-07T01:27:05;94742.69;;;23.25;50.19
31337;BME280;22846;42.654;23.314;2023-05-07T01:29:31;94721.50;;;23.17;50.26
31337;BME280;22846;42.654;23.314;2023-05-07T01:32:00;94734.50;;;23.25;50.01
31337;BME280;22846;42.654;23.314;2023-05-07T01:34:28;94734.50;;;23.25;49.85
31337;BME280;22846;42.654;23.314;2023-05-07T01:36:55;94732.22;;;23.24;50.28
31337;BME280;22846;42.654;23.314;2023-05-07T01:39:28;94722.50;;;23.23;50.17
31337;BME280;22846;42.654;23.314;2023-05-07T01:41:58;94722.50;;;23.23;50.03
31337;BME280;22846;42.654;23.314;2023-05-07T01:44:25;94727.53;;;23.24;50.30
31337;BME280;22846;42.654;23.314;2023-05-07T01:46:51;94723.69;;;23.22;50.28
31337;BME280;22846;42.654;23.314;2023-05-07T01:49:17;94720.97;;;23.22;50.34
31337;BME280;22846;42.654;23.314;2023-05-07T01:51:43;94706.56;;;23.21;50.27
31337;BME280;22846;42.654;23.314;2023-05-07T01:54:09;94698.41;;;23.21;50.08
31337;BME280;22846;42.654;23.314;2023-05-07T01:56:35;94704.59;;;23.22;50.04
31337;BME280;22846;42.654;23.314;2023-05-07T01:59:00;94701.88;;;23.22;50.22
31337;BME280;22846;42.654;23.314;2023-05-07T02:01:27;94691.06;;;23.18;50.38
31337;BME280;22846;42.654;23.314;2023-05-07T02:03:52;94703.84;;;23.21;50.50
31337;BME280;22846;42.654;23.314;2023-05-07T02:06:18;94692.16;;;23.21;50.42
31337;BME280;22846;42.654;23.314;2023-05-07T02:08:44;94688.44;;;23.15;50.53
31337;BME280;22846;42.654;23.314;2023-05-07T02:11:10;94687.94;;;23.20;50.19
31337;BME280;22846;42.654;23.314;2023-05-07T02:13:36;94675.63;;;23.12;49.96
31337;BME280;22846;42.654;23.314;2023-05-07T02:16:01;94684.41;;;23.19;50.35
31337;BME280;22846;42.654;23.314;2023-05-07T02:18:27;94692.16;;;23.21;50.40
31337;BME280;22846;42.654;23.314;2023-05-07T02:20:52;94689.44;;;23.21;50.16
31337;BME280;22846;42.654;23.314;2023-05-07T02:23:18;94691.41;;;23.20;50.23
31337;BME280;22846;42.654;23.314;2023-05-07T02:25:43;94691.41;;;23.20;49.88
31337;BME280;22846;42.654;23.314;2023-05-07T02:28:09;94687.94;;;23.20;50.54
31337;BME280;22846;42.654;23.314;2023-05-07T02:30:34;94687.16;;;23.19;50.23
31337;BME280;22846;42.654;23.314;2023-05-07T02:33:00;94696.09;;;23.20;50.17
31337;BME280;22846;42.654;23.314;2023-05-07T02:35:25;94670.63;;;23.10;49.92
31337;BME280;22846;42.654;23.314;2023-05-07T02:37:51;94691.84;;;23.19;50.07
31337;BME280;22846;42.654;23.314;2023-05-07T02:40:16;94694.56;;;23.19;49.98
31337;BME280;22846;42.654;23.314;2023-05-07T02:42:42;94687.59;;;23.18;50.09
31337;BME280;22846;42.654;23.314;2023-05-07T02:45:08;94693.03;;;23.18;49.93
31337;BME280;22846;42.654;23.314;2023-05-07T02:47:33;94690.72;;;23.16;49.96
31337;BME280;22846;42.654;23.314;2023-05-07T02:49:58;94692.25;;;23.17;50.12
31337;BME280;22846;42.654;23.314;2023-05-07T02:52:24;94694.22;;;23.17;50.14
31337;BME280;22846;42.654;23.314;2023-05-07T02:54:49;94696.16;;;23.16;50.23
31337;BME280;22846;42.654;23.314;2023-05-07T02:57:15;94694.41;;;23.10;50.13
31337;BME280;22846;42.654;23.314;2023-05-07T02:59:41;94703.16;;;23.17;50.11
31337;BME280;22846;42.654;23.314;2023-05-07T03:02:08;94706.31;;;23.16;50.50
31337;BME280;22846;42.654;23.314;2023-05-07T03:04:34;94712.53;;;23.16;50.40
31337;BME280;22846;42.654;23.314;2023-05-07T03:06:59;94702.06;;;23.15;49.93
31337;BME280;22846;42.654;23.314;2023-05-07T03:09:24;94711.03;;;23.15;50.33
31337;BME280;22846;42.654;23.314;2023-05-07T03:11:50;94709.03;;;23.16;50.23
31337;BME280;22846;42.654;23.314;2023-05-07T03:14:15;94707.50;;;23.15;49.88
31337;BME280;22846;42.654;23.314;2023-05-07T03:16:40;94714.50;;;23.16;50.07
31337;BME280;22846;42.654;23.314;2023-05-07T03:19:06;94721.13;;;23.15;50.27
31337;BME280;22846;42.654;23.314;2023-05-07T03:21:31;94715.69;;;23.15;50.28
31337;BME280;22846;42.654;23.314;2023-05-07T03:23:59;94716.88;;;23.14;50.06
31337;BME280;22846;42.654;23.314;2023-05-07T03:26:24;94718.84;;;23.13;50.38
31337;BME280;22846;42.654;23.314;2023-05-07T03:28:50;94721.13;;;23.15;50.21
31337;BME280;22846;42.654;23.314;2023-05-07T03:31:17;94699.75;;;22.98;50.17
31337;BME280;22846;42.654;23.314;2023-05-07T03:33:53;94718.84;;;23.13;49.99
31337;BME280;22846;42.654;23.314;2023-05-07T03:36:20;94725.06;;;23.14;49.99
31337;BME280;22846;42.654;23.314;2023-05-07T03:38:45;94726.25;;;23.13;49.84
31337;BME280;22846;42.654;23.314;2023-05-07T03:41:11;94718.59;;;23.08;49.98
31337;BME280;22846;42.654;23.314;2023-05-07T03:43:36;94727.78;;;23.14;49.86
31337;BME280;22846;42.654;23.314;2023-05-07T03:46:02;94733.25;;;23.14;49.80
31337;BME280;22846;42.654;23.314;2023-05-07T03:48:27;94733.25;;;23.14;50.07
31337;BME280;22846;42.654;23.314;2023-05-07T03:50:53;94737.16;;;23.13;49.68
31337;BME280;22846;42.654;23.314;2023-05-07T03:53:18;94735.56;;;23.15;50.12
31337;BME280;22846;42.654;23.314;2023-05-07T03:55:43;94736.75;;;23.14;50.00
31337;BME280;22846;42.654;23.314;2023-05-07T03:58:09;94749.19;;;23.15;50.10
31337;BME280;22846;42.654;23.314;2023-05-07T04:00:34;94748.41;;;23.15;49.67
31337;BME280;22846;42.654;23.314;2023-05-07T04:03:03;94740.66;;;23.13;49.75
31337;BME280;22846;42.654;23.314;2023-05-07T04:05:29;94748.41;;;23.15;49.81
31337;BME280;22846;42.654;23.314;2023-05-07T04:07:55;94748.41;;;23.15;50.35
31337;BME280;22846;42.654;23.314;2023-05-07T04:10:20;94763.56;;;23.16;49.94
31337;BME280;22846;42.654;23.314;2023-05-07T04:12:46;94756.16;;;23.16;49.88
31337;BME280;22846;42.654;23.314;2023-05-07T04:15:11;94766.28;;;23.16;49.85
31337;BME280;22846;42.654;23.314;2023-05-07T04:17:36;94767.06;;;23.16;50.23
31337;BME280;22846;42.654;23.314;2023-05-07T04:20:02;94777.19;;;23.16;49.51
31337;BME280;22846;42.654;23.314;2023-05-07T04:22:28;94783.41;;;23.16;49.45
31337;BME280;22846;42.654;23.314;2023-05-07T04:24:53;94783.00;;;23.18;49.83
31337;BME280;22846;42.654;23.314;2023-05-07T04:27:18;94781.47;;;23.17;49.84
31337;BME280;22846;42.654;23.314;2023-05-07T04:29:44;94791.19;;;23.18;50.33
31337;BME280;22846;42.654;23.314;2023-05-07T04:32:12;94782.66;;;23.16;50.17
31337;BME280;22846;42.654;23.314;2023-05-07T04:34:38;94785.28;;;23.19;50.65
31337;BME280;22846;42.654;23.314;2023-05-07T04:37:03;94794.25;;;23.20;50.77
31337;BME280;22846;42.654;23.314;2023-05-07T04:39:29;94795.00;;;23.20;50.82
31337;BME280;22846;42.654;23.314;2023-05-07T04:41:54;94792.28;;;23.20;50.68
31337;BME280;22846;42.654;23.314;2023-05-07T04:44:20;94801.22;;;23.21;50.82
31337;BME280;22846;42.654;23.314;2023-05-07T04:46:45;94798.84;;;23.23;50.80
31337;BME280;22846;42.654;23.314;2023-05-07T04:49:10;94800.03;;;23.22;50.81
31337;BME280;22846;42.654;23.314;2023-05-07T04:51:36;94799.63;;;23.23;50.84
31337;BME280;22846;42.654;23.314;2023-05-07T04:54:03;94801.91;;;23.25;50.44
31337;BME280;22846;42.654;23.314;2023-05-07T04:56:29;94796.47;;;23.25;50.62
31337;BME280;22846;42.654;23.314;2023-05-07T04:58:57;94797.22;;;23.25;50.78
31337;BME280;22846;42.654;23.314;2023-05-07T05:01:23;94800.28;;;23.27;50.86
31337;BME280;22846;42.654;23.314;2023-05-07T05:03:48;94796.38;;;23.28;50.43
31337;BME280;22846;42.654;23.314;2023-05-07T05:06:13;94797.91;;;23.29;50.67
31337;BME280;22846;42.654;23.314;2023-05-07T05:08:39;94789.03;;;23.25;50.62
31337;BME280;22846;42.654;23.314;2023-05-07T05:11:05;94793.22;;;23.30;50.74
31337;BME280;22846;42.654;23.314;2023-05-07T05:13:30;94791.28;;;23.30;50.54
31337;BME280;22846;42.654;23.314;2023-05-07T05:15:55;94784.63;;;23.31;50.21
31337;BME280;22846;42.654;23.314;2023-05-07T05:18:21;94783.44;;;23.32;49.91
31337;BME280;22846;42.654;23.314;2023-05-07T05:20:46;94795.84;;;23.33;50.16
31337;BME280;22846;42.654;23.314;2023-05-07T05:23:12;94791.94;;;23.34;50.38
31337;BME280;22846;42.654;23.314;2023-05-07T05:25:37;94791.94;;;23.34;50.18
31337;BME280;22846;42.654;23.314;2023-05-07T05:28:04;94795.44;;;23.35;49.91
31337;BME280;22846;42.654;23.314;2023-05-07T05:30:29;94801.25;;;23.37;50.22
31337;BME280;22846;42.654;23.314;2023-05-07T05:32:55;94800.03;;;23.38;50.29
31337;BME280;22846;42.654;23.314;2023-05-07T05:35:20;94794.56;;;23.38;50.07
31337;BME280;22846;42.654;23.314;2023-05-07T05:37:46;94785.38;;;23.32;50.12
31337;BME280;22846;42.654;23.314;2023-05-07T05:40:11;94800.38;;;23.40;50.03
31337;BME280;22846;42.654;23.314;2023-05-07T05:42:37;94801.16;;;23.40;50.27
31337;BME280;22846;42.654;23.314;2023-05-07T05:45:02;94798.00;;;23.42;50.38
31337;BME280;22846;42.654;23.314;2023-05-07T05:47:28;94798.00;;;23.42;50.31
31337;BME280;22846;42.654;23.314;2023-05-07T05:49:54;94801.06;;;23.44;50.42
31337;BME280;22846;42.654;23.314;2023-05-07T05:52:20;94796.03;;;23.42;50.21
31337;BME280;22846;42.654;23.314;2023-05-07T05:54:45;94794.44;;;23.45;49.91
31337;BME280;22846;42.654;23.314;2023-05-07T05:57:10;94795.97;;;23.46;50.30
31337;BME280;22846;42.654;23.314;2023-05-07T05:59:36;94799.00;;;23.48;49.87
31337;BME280;22846;42.654;23.314;2023-05-07T06:02:02;94794.44;;;23.45;50.09
31337;BME280;22846;42.654;23.314;2023-05-07T06:04:27;94801.34;;;23.49;49.94
31337;BME280;22846;42.654;23.314;2023-05-07T06:06:53;94808.31;;;23.50;49.67
31337;BME280;22846;42.654;23.314;2023-05-07T06:09:18;94786.06;;;23.36;49.74
31337;BME280;22846;42.654;23.314;2023-05-07T06:11:43;94806.69;;;23.53;49.73
31337;BME280;22846;42.654;23.314;2023-05-07T06:14:09;94807.44;;;23.53;49.73
31337;BME280;22846;42.654;23.314;2023-05-07T06:16:34;94805.50;;;23.54;50.05
31337;BME280;22846;42.654;23.314;2023-05-07T06:19:00;94794.91;;;23.56;49.84
31337;BME280;22846;42.654;23.314;2023-05-07T06:21:26;94798.44;;;23.56;49.69
31337;BME280;22846;42.654;23.314;2023-05-07T06:23:51;94794.50;;;23.57;49.68
31337;BME280;22846;42.654;23.314;2023-05-07T06:26:17;94793.31;;;23.58;49.40
31337;BME280;22846;42.654;23.314;2023-05-07T06:28:42;94793.31;;;23.58;49.58
31337;BME280;22846;42.654;23.314;2023-05-07T06:31:14;94788.63;;;23.59;49.09
31337;BME280;22846;42.654;23.314;2023-05-07T06:33:40;94780.00;;;23.60;49.21
31337;BME280;22846;42.654;23.314;2023-05-07T06:36:06;94780.78;;;23.61;49.01
31337;BME280;22846;42.654;23.314;2023-05-07T06:38:31;94787.78;;;23.62;49.50
31337;BME280;22846;42.654;23.314;2023-05-07T06:40:57;94776.06;;;23.61;49.30
31337;BME280;22846;42.654;23.314;2023-05-07T06:43:22;94774.13;;;23.62;49.44
31337;BME280;22846;42.654;23.314;2023-05-07T06:45:48;94758.78;;;23.52;49.15
31337;BME280;22846;42.654;23.314;2023-05-07T06:48:13;94772.94;;;23.63;49.28
31337;BME280;22846;42.654;23.314;2023-05-07T06:50:38;94772.50;;;23.64;49.24
31337;BME280;22846;42.654;23.314;2023-05-07T06:53:04;94765.06;;;23.65;49.26
31337;BME280;22846;42.654;23.314;2023-05-07T06:55:29;94766.59;;;23.66;49.13
31337;BME280;22846;42.654;23.314;2023-05-07T06:57:55;94764.66;;;23.66;49.14
31337;BME280;22846;42.654;23.314;2023-05-07T07:00:20;94759.19;;;23.66;49.27
31337;BME280;22846;42.654;23.314;2023-05-07T07:02:45;94764.22;;;23.68;49.16
31337;BME280;22846;42.654;23.314;2023-05-07T07:05:11;94764.97;;;23.68;49.34
31337;BME280;22846;42.654;23.314;2023-05-07T07:07:36;94764.97;;;23.68;49.23
31337;BME280;22846;42.654;23.314;2023-05-07T07:10:02;94772.75;;;23.70;49.55
31337;BME280;22846;42.654;23.314;2023-05-07T07:12:29;94761.84;;;23.70;49.27
31337;BME280;22846;42.654;23.314;2023-05-07T07:14:55;94763.38;;;23.71;49.34
31337;BME280;22846;42.654;23.314;2023-05-07T07:17:20;94762.19;;;23.72;49.24
31337;BME280;22846;42.654;23.314;2023-05-07T07:19:46;94763.38;;;23.71;49.51
31337;BME280;22846;42.654;23.314;2023-05-07T07:22:11;94762.94;;;23.72;49.49
31337;BME280;22846;42.654;23.314;2023-05-07T07:24:36;94766.41;;;23.73;49.48
31337;BME280;22846;42.654;23.314;2023-05-07T07:27:02;94760.56;;;23.74;49.33
31337;BME280;22846;42.654;23.314;2023-05-07T07:29:27;94753.16;;;23.75;49.36
31337;BME280;22846;42.654;23.314;2023-05-07T07:31:53;94753.16;;;23.75;49.48
31337;BME280;22846;42.654;23.314;2023-05-07T07:34:18;94751.94;;;23.76;49.23
31337;BME280;22846;42.654;23.314;2023-05-07T07:36:43;94760.13;;;23.76;48.81
31337;BME280;22846;42.654;23.314;2023-05-07T07:39:09;94760.91;;;23.76;49.01
31337;BME280;22846;42.654;23.314;2023-05-07T07:41:34;94756.22;;;23.77;49.43
31337;BME280;22846;42.654;23.314;2023-05-07T07:44:00;94760.03;;;23.79;49.14
31337;BME280;22846;42.654;23.314;2023-05-07T07:46:25;94760.03;;;23.79;49.00
31337;BME280;22846;42.654;23.314;2023-05-07T07:48:51;94766.28;;;23.80;49.02
31337;BME280;22846;42.654;23.314;2023-05-07T07:51:17;94752.63;;;23.80;49.26
31337;BME280;22846;42.654;23.314;2023-05-07T07:53:42;94766.28;;;23.80;49.16
31337;BME280;22846;42.654;23.314;2023-05-07T07:56:08;94765.09;;;23.81;49.13
31337;BME280;22846;42.654;23.314;2023-05-07T07:58:34;94767.03;;;23.80;49.07
31337;BME280;22846;42.654;23.314;2023-05-07T08:01:00;94770.09;;;23.82;48.84
31337;BME280;22846;42.654;23.314;2023-05-07T08:03:26;94770.88;;;23.83;49.04
31337;BME280;22846;42.654;23.314;2023-05-07T08:05:51;94759.94;;;23.83;48.74
31337;BME280;22846;42.654;23.314;2023-05-07T08:08:17;94756.03;;;23.84;48.90
31337;BME280;22846;42.654;23.314;2023-05-07T08:10:42;94756.03;;;23.84;49.18
31337;BME280;22846;42.654;23.314;2023-05-07T08:13:08;94754.19;;;23.81;49.15
31337;BME280;22846;42.654;23.314;2023-05-07T08:15:33;94748.78;;;23.77;49.01
31337;BME280;22846;42.654;23.314;2023-05-07T08:17:58;94757.91;;;23.87;49.23
31337;BME280;22846;42.654;23.314;2023-05-07T08:20:25;94753.63;;;23.86;48.74
31337;BME280;22846;42.654;23.314;2023-05-07T08:22:51;94754.41;;;23.86;48.99
31337;BME280;22846;42.654;23.314;2023-05-07T08:25:16;94745.88;;;23.84;49.08
31337;BME280;22846;42.654;23.314;2023-05-07T08:27:42;94753.19;;;23.87;48.89
31337;BME280;22846;42.654;23.314;2023-05-07T08:30:08;94753.19;;;23.87;48.89
31337;BME280;22846;42.654;23.314;2023-05-07T08:32:33;94749.72;;;23.87;48.90
31337;BME280;22846;42.654;23.314;2023-05-07T08:34:59;94747.75;;;23.87;49.23
31337;BME280;22846;42.654;23.314;2023-05-07T08:37:25;94740.34;;;23.88;49.04
31337;BME280;22846;42.654;23.314;2023-05-07T08:39:50;94747.34;;;23.89;49.19
31337;BME280;22846;42.654;23.314;2023-05-07T08:42:17;94739.16;;;23.89;48.97
31337;BME280;22846;42.654;23.314;2023-05-07T08:44:45;94741.09;;;23.88;49.36
31337;BME280;22846;42.654;23.314;2023-05-07T08:47:12;94741.88;;;23.89;48.96
31337;BME280;22846;42.654;23.314;2023-05-07T08:49:37;94745.34;;;23.89;48.94
31337;BME280;22846;42.654;23.314;2023-05-07T08:52:03;94737.91;;;23.90;49.42
31337;BME280;22846;42.654;23.314;2023-05-07T08:54:29;94730.38;;;23.81;49.07
31337;BME280;22846;42.654;23.314;2023-05-07T08:56:55;94736.72;;;23.91;49.30
31337;BME280;22846;42.654;23.314;2023-05-07T08:59:21;94727.34;;;23.92;49.29
31337;BME280;22846;42.654;23.314;2023-05-07T09:01:46;94713.16;;;23.84;48.95
31337;BME280;22846;42.654;23.314;2023-05-07T09:04:12;94730.84;;;23.92;49.37
31337;BME280;22846;42.654;23.314;2023-05-07T09:06:38;94721.13;;;23.91;49.25
31337;BME280;22846;42.654;23.314;2023-05-07T09:09:07;94723.41;;;23.92;49.28
31337;BME280;22846;42.654;23.314;2023-05-07T09:11:32;94726.16;;;23.92;48.97
31337;BME280;22846;42.654;23.314;2023-05-07T09:13:58;94724.19;;;23.93;49.28
31337;BME280;22846;42.654;23.314;2023-05-07T09:16:28;94721.47;;;23.93;49.39
31337;BME280;22846;42.654;23.314;2023-05-07T09:18:54;94712.50;;;23.92;49.06
31337;BME280;22846;42.654;23.314;2023-05-07T09:21:20;94716.75;;;23.93;48.97
31337;BME280;22846;42.654;23.314;2023-05-07T09:23:49;94712.06;;;23.94;49.16
31337;BME280;22846;42.654;23.314;2023-05-07T09:26:15;94710.88;;;23.95;49.37
31337;BME280;22846;42.654;23.314;2023-05-07T09:28:41;94701.94;;;23.94;49.33
31337;BME280;22846;42.654;23.314;2023-05-07T09:31:08;94698.75;;;23.96;49.06
31337;BME280;22846;42.654;23.314;2023-05-07T09:33:33;94703.47;;;23.95;49.41
31337;BME280;22846;42.654;23.314;2023-05-07T09:36:02;94698.00;;;23.95;49.01
31337;BME280;22846;42.654;23.314;2023-05-07T09:38:28;94698.00;;;23.95;48.90
31337;BME280;22846;42.654;23.314;2023-05-07T09:41:10;94695.28;;;23.95;49.17
31337;BME280;22846;42.654;23.314;2023-05-07T09:43:37;94700.28;;;23.97;49.08
31337;BME280;22846;42.654;23.314;2023-05-07T09:46:12;94694.94;;;23.93;49.05
31337;BME280;22846;42.654;23.314;2023-05-07T09:48:39;94691.34;;;23.96;49.41
31337;BME280;22846;42.654;23.314;2023-05-07T09:53:46;94691.34;;;23.96;49.27
31337;BME280;22846;42.654;23.314;2023-05-07T09:56:13;94685.44;;;23.98;49.34
31337;BME280;22846;42.654;23.314;2023-05-07T09:58:41;94692.88;;;23.97;49.04
31337;BME280;22846;42.654;23.314;2023-05-07T10:01:10;94691.34;;;23.96;49.12
31337;BME280;22846;42.654;23.314;2023-05-07T10:03:37;94688.63;;;23.96;49.36
31337;BME280;22846;42.654;23.314;2023-05-07T10:06:05;94673.63;;;23.89;49.02
31337;BME280;22846;42.654;23.314;2023-05-07T10:08:31;94685.44;;;23.98;49.39
31337;BME280;22846;42.654;23.314;2023-05-07T10:10:56;94682.72;;;23.98;48.99
31337;BME280;22846;42.654;23.314;2023-05-07T10:13:22;94678.78;;;23.99;48.93
31337;BME280;22846;42.654;23.314;2023-05-07T10:15:47;94680.00;;;23.98;49.08
31337;BME280;22846;42.654;23.314;2023-05-07T10:18:13;94673.78;;;23.97;49.37
31337;BME280;22846;42.654;23.314;2023-05-07T10:20:39;94671.34;;;23.99;49.25
31337;BME280;22846;42.654;23.314;2023-05-07T10:23:07;94668.63;;;23.99;49.34
31337;BME280;22846;42.654;23.314;2023-05-07T10:25:34;94668.22;;;24.01;49.31
31337;BME280;22846;42.654;23.314;2023-05-07T10:28:04;94647.34;;;23.94;48.98
31337;BME280;22846;42.654;23.314;2023-05-07T10:32:56;94650.28;;;24.00;49.44
31337;BME280;22846;42.654;23.314;2023-05-07T10:35:32;94638.06;;;23.92;48.97
31337;BME280;22846;42.654;23.314;2023-05-07T10:38:01;94643.31;;;23.99;49.27
31337;BME280;22846;42.654;23.314;2023-05-07T10:40:27;94652.59;;;24.01;49.02
31337;BME280;22846;42.654;23.314;2023-05-07T10:42:57;94646.38;;;24.01;49.44
31337;BME280;22846;42.654;23.314;2023-05-07T10:45:25;94647.56;;;24.00;49.34
31337;BME280;22846;42.654;23.314;2023-05-07T10:50:47;94643.94;;;24.03;49.11
31337;BME280;22846;42.654;23.314;2023-05-07T11:25:07;94629.22;;;23.72;50.28
31337;BME280;22846;42.654;23.314;2023-05-07T11:27:33;94625.81;;;23.84;50.32
31337;BME280;22846;42.654;23.314;2023-05-07T11:29:59;94618.28;;;23.88;49.88
31337;BME280;22846;42.654;23.314;2023-05-07T11:32:28;94625.16;;;23.92;50.10
31337;BME280;22846;42.654;23.314;2023-05-07T11:34:55;94624.31;;;23.95;49.65
31337;BME280;22846;42.654;23.314;2023-05-07T11:37:22;94619.19;;;23.97;49.87
31337;BME280;22846;42.654;23.314;2023-05-07T11:39:48;94624.19;;;23.99;49.45
31337;BME280;22846;42.654;23.314;2023-05-07T11:42:30;94616.75;;;23.99;49.63
31337;BME280;22846;42.654;23.314;2023-05-07T11:44:56;94614.38;;;24.01;49.70
31337;BME280;22846;42.654;23.314;2023-05-07T11:47:22;94615.91;;;24.02;49.85
31337;BME280;22846;42.654;23.314;2023-05-07T11:49:48;94613.91;;;24.03;49.58
31337;BME280;22846;42.654;23.314;2023-05-07T11:52:15;94613.16;;;24.02;49.55
31337;BME280;22846;42.654;23.314;2023-05-07T11:54:40;94607.28;;;24.04;49.45
31337;BME280;22846;42.654;23.314;2023-05-07T11:57:06;94603.34;;;24.05;49.44
31337;BME280;22846;42.654;23.314;2023-05-07T11:59:39;94606.19;;;24.01;49.85
31337;BME280;22846;42.654;23.314;2023-05-07T12:02:14;94604.13;;;24.05;49.68
31337;BME280;22846;42.654;23.314;2023-05-07T12:04:40;94593.94;;;24.06;49.41
31337;BME280;22846;42.654;23.314;2023-05-07T12:07:06;94584.69;;;24.03;49.65
31337;BME280;22846;42.654;23.314;2023-05-07T12:09:36;94587.75;;;24.05;49.41
31337;BME280;22846;42.654;23.314;2023-05-07T12:12:05;94587.75;;;24.05;49.31
31337;BME280;22846;42.654;23.314;2023-05-07T12:14:31;94594.72;;;24.06;49.53
31337;BME280;22846;42.654;23.314;2023-05-07T12:16:59;94578.34;;;24.06;49.84
31337;BME280;22846;42.654;23.314;2023-05-07T12:19:29;94583.03;;;24.06;49.40
31337;BME280;22846;42.654;23.314;2023-05-07T12:21:55;94578.44;;;24.03;49.63
31337;BME280;22846;42.654;23.314;2023-05-07T12:24:21;94584.56;;;24.07;49.76
31337;BME280;22846;42.654;23.314;2023-05-07T12:26:48;94582.59;;;24.07;49.68
31337;BME280;22846;42.654;23.314;2023-05-07T12:29:13;94576.72;;;24.09;49.52
31337;BME280;22846;42.654;23.314;2023-05-07T12:31:42;94563.91;;;24.06;49.62
31337;BME280;22846;42.654;23.314;2023-05-07T12:34:07;94567.75;;;24.08;50.12
31337;BME280;22846;42.654;23.314;2023-05-07T12:36:37;94556.19;;;24.04;49.84
31337;BME280;22846;42.654;23.314;2023-05-07T12:39:04;94554.88;;;24.09;49.83
31337;BME280;22846;42.654;23.314;2023-05-07T12:41:30;94558.00;;;24.07;49.42
31337;BME280;22846;42.654;23.314;2023-05-07T12:43:56;94556.81;;;24.08;49.93
31337;BME280;22846;42.654;23.314;2023-05-07T12:46:22;94552.44;;;24.11;50.03
31337;BME280;22846;42.654;23.314;2023-05-07T12:48:48;94546.56;;;24.12;49.79
31337;BME280;22846;42.654;23.314;2023-05-07T12:51:15;94553.97;;;24.12;49.89
31337;BME280;22846;42.654;23.314;2023-05-07T12:53:41;94538.50;;;24.09;49.34
31337;BME280;22846;42.654;23.314;2023-05-07T12:56:07;94533.78;;;24.09;49.66
31337;BME280;22846;42.654;23.314;2023-05-07T12:58:34;94535.66;;;24.12;49.44
31337;BME280;22846;42.654;23.314;2023-05-07T13:01:04;94530.19;;;24.12;49.51
31337;BME280;22846;42.654;23.314;2023-05-07T13:03:34;94531.72;;;24.13;49.80
31337;BME280;22846;42.654;23.314;2023-05-07T13:06:03;94535.97;;;24.14;49.88
31337;BME280;22846;42.654;23.314;2023-05-07T13:08:33;94527.78;;;24.14;49.56
31337;BME280;22846;42.654;23.314;2023-05-07T13:11:02;94524.59;;;24.16;49.81
31337;BME280;22846;42.654;23.314;2023-05-07T13:13:30;94524.16;;;24.17;49.82
31337;BME280;22846;42.654;23.314;2023-05-07T13:15:55;94520.69;;;24.17;49.44
31337;BME280;22846;42.654;23.314;2023-05-07T13:18:21;94525.69;;;24.18;49.47
31337;BME280;22846;42.654;23.314;2023-05-07T13:20:46;94522.22;;;24.18;49.61
31337;BME280;22846;42.654;23.314;2023-05-07T13:23:12;94519.03;;;24.19;49.85
31337;BME280;22846;42.654;23.314;2023-05-07T13:25:37;94514.78;;;24.18;49.76